createdAt,value
2017-02-24T00:00:47.786Z,27.71
2017-02-24T00:01:47.768Z,27.71
2017-02-24T00:02:47.712Z,27.71
2017-02-24T00:03:47.646Z,27.71
2017-02-24T00:04:47.583Z,27.61
2017-02-24T00:05:47.629Z,27.71
2017-02-24T00:06:47.459Z,27.71
2017-02-24T00:07:47.403Z,27.81
2017-02-24T00:08:47.340Z,27.71
2017-02-24T00:09:47.284Z,28
2017-02-24T00:10:47.224Z,27.42
2017-02-24T00:11:47.183Z,27.42
2017-02-24T00:12:47.087Z,27.61
2017-02-24T00:13:47.037Z,28.09
2017-02-24T00:14:46.965Z,28.19
2017-02-24T00:15:46.939Z,28.29
2017-02-24T00:16:46.839Z,28.19
2017-02-24T00:17:46.787Z,28.19
2017-02-24T00:18:46.767Z,28.29
2017-02-24T00:19:46.653Z,28.39
2017-02-24T00:20:46.613Z,28.29
2017-02-24T00:21:46.529Z,28.29
2017-02-24T00:22:46.465Z,28.39
2017-02-24T00:23:46.408Z,28.29
2017-02-24T00:24:46.364Z,28.29
2017-02-24T00:25:46.288Z,28.29
2017-02-24T00:26:46.219Z,28.39
2017-02-24T00:27:45.775Z,28.39
2017-02-24T00:28:46.101Z,28.29
2017-02-24T00:29:46.043Z,28.48
2017-02-24T00:30:45.975Z,28.39
2017-02-24T00:31:45.917Z,28.39
2017-02-24T00:32:45.850Z,28.09
2017-02-24T00:33:45.787Z,28.29
2017-02-24T00:34:45.724Z,28.29
2017-02-24T00:35:45.660Z,28.09
2017-02-24T00:36:45.614Z,28.29
2017-02-24T00:37:45.547Z,28.29
2017-02-24T00:38:45.478Z,28.19
2017-02-24T00:39:45.414Z,28.09
2017-02-24T00:40:45.707Z,28.39
2017-02-24T00:41:45.291Z,28.09
2017-02-24T00:42:45.230Z,28.09
2017-02-24T00:43:45.169Z,28.29
2017-02-24T00:44:45.101Z,28.29
2017-02-24T00:45:45.056Z,28.39
2017-02-24T00:46:44.980Z,28.29
2017-02-24T00:47:44.916Z,28.29
2017-02-24T00:48:44.867Z,28.19
2017-02-24T00:49:44.411Z,28.39
2017-02-24T00:50:44.354Z,28.39
2017-02-24T00:51:44.672Z,28.39
2017-02-24T00:52:44.617Z,28.29
2017-02-24T00:53:44.613Z,28.19
2017-02-24T00:54:44.493Z,28.19
2017-02-24T00:55:44.421Z,28.29
2017-02-24T00:56:44.365Z,28.29
2017-02-24T00:57:44.316Z,28.09
2017-02-24T00:58:44.239Z,28.39
2017-02-24T00:59:44.179Z,28.29
2017-02-24T01:02:59.367Z,28.39
2017-02-24T01:03:59.306Z,28.19
2017-02-24T01:04:59.250Z,28.39
2017-02-24T01:05:59.183Z,28.29
2017-02-24T01:06:59.126Z,28.19
2017-02-24T01:07:59.054Z,28.09
2017-02-24T01:08:58.992Z,28.39
2017-02-24T01:09:58.942Z,28.29
2017-02-24T01:10:58.866Z,28.09
2017-02-24T01:11:58.817Z,28.29
2017-02-24T01:12:58.758Z,28
2017-02-24T01:13:58.682Z,28.29
2017-02-24T01:14:58.250Z,28
2017-02-24T01:15:58.561Z,28.19
2017-02-24T01:16:58.493Z,28.29
2017-02-24T01:17:58.443Z,28.29
2017-02-24T01:18:58.385Z,28.19
2017-02-24T01:19:58.311Z,28.29
2017-02-24T01:20:58.264Z,28.19
2017-02-24T01:21:58.183Z,28.19
2017-02-24T01:22:58.128Z,28.19
2017-02-24T01:23:58.073Z,28.19
2017-02-24T01:24:58.022Z,28.19
2017-02-24T01:25:57.947Z,28.19
2017-02-24T01:26:57.877Z,28.29
2017-02-24T01:27:57.814Z,28.19
2017-02-24T01:28:57.750Z,28.19
2017-02-24T01:29:57.690Z,28.19
2017-02-24T01:30:57.743Z,28.19
2017-02-24T01:31:57.562Z,28.19
2017-02-24T01:32:57.508Z,28.19
2017-02-24T01:33:57.102Z,28.19
2017-02-24T01:34:57.378Z,28.19
2017-02-24T01:35:57.315Z,27.91
2017-02-24T01:36:57.255Z,28.09
2017-02-24T01:37:57.200Z,28.29
2017-02-24T01:38:57.142Z,28.19
2017-02-24T01:39:57.066Z,28.19
2017-02-24T01:40:57.011Z,28.19
2017-02-24T01:41:56.950Z,28.19
2017-02-24T01:42:56.881Z,28.29
2017-02-24T01:43:56.822Z,28.18
2017-02-24T01:44:56.756Z,27.89
2017-02-24T01:45:56.694Z,28.29
2017-02-24T01:46:56.647Z,28.19
2017-02-24T01:47:56.576Z,28.18
2017-02-24T01:48:56.124Z,28.29
2017-02-24T01:49:56.448Z,28.29
2017-02-24T01:50:56.384Z,27.91
2017-02-24T01:51:56.331Z,28.29
2017-02-24T01:52:56.271Z,27.91
2017-02-24T01:53:56.199Z,27.91
2017-02-24T01:54:56.158Z,28.09
2017-02-24T01:55:56.072Z,28.29
2017-02-24T01:56:56.039Z,27.81
2017-02-24T01:57:55.581Z,28.29
2017-02-24T01:58:55.885Z,28.29
2017-02-24T01:59:55.829Z,28.29
2017-02-24T02:00:55.762Z,28.09
2017-02-24T02:01:55.703Z,27.81
2017-02-24T02:02:55.723Z,28.09
2017-02-24T02:03:55.578Z,28.19
2017-02-24T02:04:55.514Z,28.09
2017-02-24T02:05:55.461Z,27.91
2017-02-24T02:06:55.398Z,28.08
2017-02-24T02:07:55.328Z,28.09
2017-02-24T02:08:55.276Z,28.09
2017-02-24T02:09:55.208Z,28.09
2017-02-24T02:10:55.142Z,28
2017-02-24T02:11:55.079Z,27.71
2017-02-24T02:12:55.111Z,27.7
2017-02-24T02:13:54.966Z,27.91
2017-02-24T02:14:54.908Z,28
2017-02-24T02:15:55.083Z,28
2017-02-24T02:16:54.775Z,28.09
2017-02-24T02:17:54.708Z,27.89
2017-02-24T02:18:54.654Z,27.81
2017-02-24T02:19:54.587Z,27.91
2017-02-24T02:20:54.624Z,28.09
2017-02-24T02:21:54.473Z,27.91
2017-02-24T02:22:54.398Z,28.19
2017-02-24T02:23:54.347Z,27.61
2017-02-24T02:24:53.901Z,28.09
2017-02-24T02:25:54.316Z,27.91
2017-02-24T02:26:54.160Z,28.09
2017-02-24T02:27:54.092Z,28
2017-02-24T02:28:54.026Z,28.19
2017-02-24T02:29:53.986Z,28.19
2017-02-24T02:30:54.006Z,28.09
2017-02-24T02:31:53.862Z,27.81
2017-02-24T02:32:53.821Z,28.09
2017-02-24T02:33:53.718Z,27.61
2017-02-24T02:34:53.660Z,28
2017-02-24T02:35:53.595Z,27.61
2017-02-24T02:36:53.548Z,28.08
2017-02-24T02:37:53.090Z,28.09
2017-02-24T02:38:53.409Z,28.09
2017-02-24T02:39:53.345Z,27.71
2017-02-24T02:40:53.285Z,27.51
2017-02-24T02:41:53.223Z,27.71
2017-02-24T02:42:53.165Z,28.19
2017-02-24T02:43:53.114Z,27.51
2017-02-24T02:44:53.035Z,27.71
2017-02-24T02:45:52.974Z,27.71
2017-02-24T02:46:52.945Z,27.6
2017-02-24T02:47:52.850Z,27.71
2017-02-24T02:48:52.792Z,27.7
2017-02-24T02:49:52.733Z,27.61
2017-02-24T02:50:52.662Z,27.71
2017-02-24T02:51:52.264Z,27.71
2017-02-24T02:52:52.537Z,27.71
2017-02-24T02:53:52.494Z,27.61
2017-02-24T02:54:52.419Z,27.71
2017-02-24T02:55:52.351Z,27.71
2017-02-24T02:56:52.294Z,27.71
2017-02-24T02:57:51.843Z,27.71
2017-02-24T02:58:52.166Z,27.71
2017-02-24T02:59:52.104Z,27.71
2017-02-24T03:00:52.044Z,27.71
2017-02-24T03:01:51.986Z,27.71
2017-02-24T03:02:51.917Z,27.81
2017-02-24T03:03:51.861Z,27.71
2017-02-24T03:04:51.810Z,27.71
2017-02-24T03:05:51.732Z,27.61
2017-02-24T03:06:51.680Z,27.61
2017-02-24T03:07:51.607Z,27.71
2017-02-24T03:08:51.555Z,27.71
2017-02-24T03:09:51.483Z,27.8
2017-02-24T03:10:51.425Z,27.91
2017-02-24T03:11:51.361Z,27.61
2017-02-24T03:12:51.308Z,27.61
2017-02-24T03:13:50.850Z,27.91
2017-02-24T03:14:50.799Z,27.71
2017-02-24T03:15:51.217Z,27.71
2017-02-24T03:16:50.663Z,27.71
2017-02-24T03:17:50.986Z,27.61
2017-02-24T03:18:50.937Z,27.71
2017-02-24T03:19:50.891Z,27.81
2017-02-24T03:20:50.803Z,27.61
2017-02-24T03:21:50.743Z,27.61
2017-02-24T03:22:50.296Z,27.81
2017-02-24T03:23:50.613Z,28
2017-02-24T03:24:50.554Z,28
2017-02-24T03:25:50.505Z,27.71
2017-02-24T03:26:50.433Z,27.91
2017-02-24T03:27:50.368Z,27.51
2017-02-24T03:28:50.302Z,27.91
2017-02-24T03:29:50.245Z,27.5
2017-02-24T03:30:50.182Z,28
2017-02-24T03:31:50.122Z,27.42
2017-02-24T03:32:50.055Z,28
2017-02-24T03:33:49.605Z,27.89
2017-02-24T03:34:49.932Z,27.51
2017-02-24T03:35:49.482Z,27.4
2017-02-24T03:36:49.804Z,28
2017-02-24T03:37:49.760Z,28
2017-02-24T03:38:49.694Z,27.98
2017-02-24T03:39:49.620Z,27.91
2017-02-24T03:40:49.575Z,27.98
2017-02-24T03:41:49.108Z,27.5
2017-02-24T03:42:49.447Z,27.4
2017-02-24T03:43:49.374Z,27.5
2017-02-24T03:44:49.340Z,27.61
2017-02-24T03:45:49.245Z,27.98
2017-02-24T03:46:49.187Z,27.4
2017-02-24T03:47:49.120Z,27.4
2017-02-24T03:48:49.057Z,27.51
2017-02-24T03:49:48.999Z,27.61
2017-02-24T03:50:48.935Z,27.4
2017-02-24T03:51:48.878Z,27.7
2017-02-24T03:52:48.817Z,27.51
2017-02-24T03:53:48.761Z,27.42
2017-02-24T03:54:48.697Z,27.5
2017-02-24T03:55:48.640Z,27.4
2017-02-24T03:56:48.570Z,27.7
2017-02-24T03:57:48.498Z,27.61
2017-02-24T03:58:48.439Z,27.61
2017-02-24T03:59:48.382Z,27.7
2017-02-24T04:00:48.311Z,27.8
2017-02-24T04:01:47.865Z,27.81
2017-02-24T04:02:48.188Z,27.7
2017-02-24T04:03:48.142Z,27.7
2017-02-24T04:04:48.064Z,27.6
2017-02-24T04:05:48.003Z,27.7
2017-02-24T04:06:47.945Z,27.51
2017-02-24T04:07:47.879Z,27.8
2017-02-24T04:08:47.452Z,27.7
2017-02-24T04:09:47.753Z,27.7
2017-02-24T04:10:47.695Z,27.81
2017-02-24T04:11:47.629Z,27.7
2017-02-24T04:12:47.568Z,27.7
2017-02-24T04:13:47.505Z,27.7
2017-02-24T04:14:47.441Z,27.5
2017-02-24T04:15:47.379Z,27.51
2017-02-24T04:16:47.316Z,27.51
2017-02-24T04:17:47.256Z,27.61
2017-02-24T04:18:47.216Z,27.51
2017-02-24T04:19:47.135Z,27.71
2017-02-24T04:20:47.084Z,27.51
2017-02-24T04:21:47.010Z,27.61
2017-02-24T04:22:46.945Z,27.42
2017-02-24T04:23:46.883Z,27.4
2017-02-24T04:24:46.827Z,27.61
2017-02-24T04:25:46.795Z,27.42
2017-02-24T04:26:46.731Z,27.42
2017-02-24T04:27:46.636Z,27.5
2017-02-24T04:28:46.573Z,27.5
2017-02-24T04:29:46.520Z,27.81
2017-02-24T04:30:46.452Z,27.31
2017-02-24T04:31:46.387Z,27.31
2017-02-24T04:32:46.331Z,27.71
2017-02-24T04:33:46.264Z,27.71
2017-02-24T04:34:46.199Z,27.8
2017-02-24T04:35:46.150Z,27.12
2017-02-24T04:36:46.090Z,27.91
2017-02-24T04:37:46.018Z,27.12
2017-02-24T04:38:45.951Z,27.7
2017-02-24T04:39:45.899Z,27.7
2017-02-24T04:40:45.829Z,27.22
2017-02-24T04:41:45.766Z,27.8
2017-02-24T04:42:45.705Z,27.7
2017-02-24T04:43:45.643Z,27.61
2017-02-24T04:44:45.581Z,27.71
2017-02-24T04:45:45.519Z,27.8
2017-02-24T04:46:45.468Z,27.7
2017-02-24T04:47:45.397Z,27.8
2017-02-24T04:48:45.336Z,27.81
2017-02-24T04:49:44.886Z,27.12
2017-02-24T04:50:45.210Z,27.71
2017-02-24T04:51:45.144Z,27.89
2017-02-24T04:52:45.096Z,27.8
2017-02-24T04:53:45.028Z,27.91
2017-02-24T04:54:44.961Z,27.91
2017-02-24T04:55:44.945Z,27.8
2017-02-24T04:56:44.845Z,27.71
2017-02-24T04:57:44.784Z,27.8
2017-02-24T04:58:44.720Z,27.33
2017-02-24T04:59:44.654Z,27.13
2017-02-24T05:00:44.597Z,27.22
2017-02-24T05:01:44.538Z,27.89
2017-02-24T05:02:44.460Z,27.8
2017-02-24T05:03:44.406Z,27.42
2017-02-24T05:04:44.339Z,27.12
2017-02-24T05:05:44.283Z,26.75
2017-02-24T05:06:44.228Z,27.02
2017-02-24T05:07:44.157Z,26.54
2017-02-24T05:08:44.129Z,26.65
2017-02-24T05:09:44.037Z,27.02
2017-02-24T05:10:43.967Z,27.12
2017-02-24T05:11:43.917Z,26.93
2017-02-24T05:12:43.844Z,27.03
2017-02-24T05:13:43.808Z,27.03
2017-02-24T05:14:43.717Z,26.54
2017-02-24T05:15:43.656Z,26.55
2017-02-24T05:16:43.597Z,26.73
2017-02-24T05:17:43.533Z,26.54
2017-02-24T05:18:43.486Z,26.44
2017-02-24T05:19:43.415Z,26.45
2017-02-24T05:20:43.346Z,26.65
2017-02-24T05:21:43.285Z,26.44
2017-02-24T05:22:43.220Z,26.34
2017-02-24T05:23:43.158Z,26.15
2017-02-24T05:24:43.100Z,26.15
2017-02-24T05:25:43.036Z,26.25
2017-02-24T05:26:42.972Z,26.25
2017-02-24T05:27:42.910Z,26.15
2017-02-24T05:28:42.478Z,26.06
2017-02-24T05:29:42.799Z,25.86
2017-02-24T05:30:42.742Z,25.87
2017-02-24T05:31:42.669Z,25.96
2017-02-24T05:32:42.601Z,26.07
2017-02-24T05:33:42.542Z,25.96
2017-02-24T05:34:42.487Z,25.86
2017-02-24T05:35:42.413Z,25.86
2017-02-24T05:36:42.350Z,25.76
2017-02-24T05:37:42.303Z,25.86
2017-02-24T05:38:41.849Z,25.67
2017-02-24T05:39:42.164Z,25.76
2017-02-24T05:40:42.132Z,25.76
2017-02-24T05:41:42.043Z,25.67
2017-02-24T05:42:41.979Z,25.48
2017-02-24T05:43:41.918Z,25.57
2017-02-24T05:44:41.885Z,25.57
2017-02-24T05:45:41.796Z,25.39
2017-02-24T05:46:41.733Z,25.39
2017-02-24T05:47:41.679Z,25.57
2017-02-24T05:48:41.700Z,25.57
2017-02-24T05:49:41.548Z,25.38
2017-02-24T05:50:41.481Z,25.39
2017-02-24T05:51:41.448Z,25.28
2017-02-24T05:52:40.978Z,25.38
2017-02-24T05:53:41.298Z,25.48
2017-02-24T05:54:41.239Z,25.19
2017-02-24T05:55:41.184Z,25.19
2017-02-24T05:56:41.114Z,25.19
2017-02-24T05:57:41.054Z,25.19
2017-02-24T05:58:40.993Z,25.09
2017-02-24T05:59:40.928Z,25.19
2017-02-24T06:00:40.878Z,25.09
2017-02-24T06:01:40.800Z,25.09
2017-02-24T06:02:40.357Z,25.09
2017-02-24T06:03:40.681Z,24.99
2017-02-24T06:04:40.620Z,24.99
2017-02-24T06:05:40.552Z,25.09
2017-02-24T06:06:40.494Z,24.8
2017-02-24T06:07:40.430Z,24.61
2017-02-24T06:08:40.422Z,24.99
2017-02-24T06:09:40.320Z,24.8
2017-02-24T06:10:40.345Z,24.71
2017-02-24T06:11:40.180Z,24.61
2017-02-24T06:12:40.121Z,24.81
2017-02-24T06:13:40.063Z,24.9
2017-02-24T06:14:39.997Z,24.61
2017-02-24T06:15:39.937Z,24.71
2017-02-24T06:16:39.868Z,24.52
2017-02-24T06:17:39.807Z,24.22
2017-02-24T06:18:39.749Z,24.41
2017-02-24T06:19:39.681Z,24.51
2017-02-24T06:20:39.625Z,24.61
2017-02-24T06:21:39.572Z,24.51
2017-02-24T06:22:39.495Z,24.71
2017-02-24T06:23:39.436Z,24.51
2017-02-24T06:24:39.374Z,24.41
2017-02-24T06:25:39.312Z,24.41
2017-02-24T06:26:39.252Z,24.32
2017-02-24T06:27:39.188Z,24.41
2017-02-24T06:28:39.128Z,24.22
2017-02-24T06:29:39.063Z,24.41
2017-02-24T06:30:39.001Z,24.22
2017-02-24T06:31:38.936Z,24.03
2017-02-24T06:32:38.875Z,24.13
2017-02-24T06:33:38.818Z,23.93
2017-02-24T06:34:38.764Z,24.22
2017-02-24T06:35:38.688Z,24.22
2017-02-24T06:36:38.628Z,24.41
2017-02-24T06:37:38.569Z,24.13
2017-02-24T06:38:38.503Z,23.85
2017-02-24T06:39:38.442Z,23.83
2017-02-24T06:40:38.001Z,23.74
2017-02-24T06:41:38.328Z,24.03
2017-02-24T06:42:38.262Z,23.74
2017-02-24T06:43:38.197Z,23.93
2017-02-24T06:44:38.138Z,24.03
2017-02-24T06:45:38.065Z,23.93
2017-02-24T06:46:38.014Z,23.83
2017-02-24T06:47:37.941Z,23.83
2017-02-24T06:48:37.900Z,23.74
2017-02-24T06:49:37.818Z,23.83
2017-02-24T06:50:37.771Z,23.55
2017-02-24T06:51:37.706Z,23.55
2017-02-24T06:52:37.650Z,23.74
2017-02-24T06:53:37.580Z,23.93
2017-02-24T06:54:37.507Z,23.74
2017-02-24T06:55:37.460Z,23.74
2017-02-24T06:56:37.398Z,23.55
2017-02-24T06:57:37.324Z,23.83
2017-02-24T06:58:37.267Z,23.55
2017-02-24T06:59:37.200Z,23.35
2017-02-24T07:00:37.148Z,23.55
2017-02-24T07:01:37.073Z,23.65
2017-02-24T07:02:37.011Z,23.55
2017-02-24T07:03:36.962Z,23.45
2017-02-24T07:04:36.514Z,23.45
2017-02-24T07:05:36.878Z,23.35
2017-02-24T07:06:36.376Z,23.55
2017-02-24T07:07:36.698Z,23.55
2017-02-24T07:08:36.640Z,23.65
2017-02-24T07:09:36.590Z,23.65
2017-02-24T07:10:36.613Z,23.93
2017-02-24T07:11:36.451Z,23.74
2017-02-24T07:12:36.388Z,23.74
2017-02-24T07:13:36.325Z,23.35
2017-02-24T07:14:36.276Z,22.67
2017-02-24T07:15:36.204Z,23.16
2017-02-24T07:16:36.180Z,22.97
2017-02-24T07:17:36.080Z,23.35
2017-02-24T07:18:36.016Z,23.16
2017-02-24T07:19:35.954Z,23.35
2017-02-24T07:20:35.895Z,23.25
2017-02-24T07:21:35.844Z,22.87
2017-02-24T07:22:35.772Z,23.25
2017-02-24T07:23:35.708Z,23.25
2017-02-24T07:24:35.257Z,23.45
2017-02-24T07:25:35.583Z,23.25
2017-02-24T07:26:35.153Z,22.87
2017-02-24T07:27:35.068Z,23.16
2017-02-24T07:28:35.019Z,23.25
2017-02-24T07:29:35.346Z,23.25
2017-02-24T07:30:35.270Z,23.35
2017-02-24T07:31:35.207Z,23.25
2017-02-24T07:32:35.163Z,23.25
2017-02-24T07:33:35.080Z,23.25
2017-02-24T07:34:35.019Z,22.87
2017-02-24T07:35:34.965Z,22.77
2017-02-24T07:36:34.896Z,22.77
2017-02-24T07:37:34.834Z,23.35
2017-02-24T07:38:34.773Z,23.35
2017-02-24T07:39:34.726Z,23.25
2017-02-24T07:40:34.648Z,23.35
2017-02-24T07:41:34.589Z,23.25
2017-02-24T07:42:34.538Z,23.25
2017-02-24T07:43:34.463Z,23.25
2017-02-24T07:44:34.406Z,23.16
2017-02-24T07:45:34.337Z,23.45
2017-02-24T07:46:34.275Z,23.35
2017-02-24T07:47:34.210Z,23.25
2017-02-24T07:48:34.170Z,23.25
2017-02-24T07:49:34.094Z,22.87
2017-02-24T07:50:34.031Z,23.35
2017-02-24T07:51:33.962Z,23.25
2017-02-24T07:52:33.911Z,23.45
2017-02-24T07:53:34.122Z,22.87
2017-02-24T07:54:33.395Z,22.87
2017-02-24T07:55:33.715Z,22.97
2017-02-24T07:56:33.668Z,23.35
2017-02-24T07:57:33.618Z,22.87
2017-02-24T07:58:33.536Z,22.87
2017-02-24T07:59:33.469Z,22.97
2017-02-24T08:00:33.413Z,22.87
2017-02-24T08:01:33.342Z,22.97
2017-02-24T08:02:33.284Z,23.07
2017-02-24T08:03:33.219Z,23.07
2017-02-24T08:04:33.170Z,22.97
2017-02-24T08:05:33.191Z,22.97
2017-02-24T08:06:33.039Z,22.87
2017-02-24T08:07:32.966Z,23.07
2017-02-24T08:08:32.909Z,22.97
2017-02-24T08:09:32.840Z,22.87
2017-02-24T08:10:33.081Z,23.07
2017-02-24T08:11:32.717Z,23.35
2017-02-24T08:12:32.678Z,22.97
2017-02-24T08:13:32.595Z,23.35
2017-02-24T08:14:32.151Z,22.39
2017-02-24T08:15:32.466Z,23.16
2017-02-24T08:16:32.406Z,23.07
2017-02-24T08:17:32.386Z,22.97
2017-02-24T08:18:32.281Z,22.87
2017-02-24T08:19:32.221Z,23.07
2017-02-24T08:20:32.154Z,23.07
2017-02-24T08:21:32.111Z,23.07
2017-02-24T08:22:32.045Z,23.16
2017-02-24T08:23:31.971Z,23.07
2017-02-24T08:24:31.919Z,22.97
2017-02-24T08:25:31.844Z,23.07
2017-02-24T08:26:31.783Z,22.97
2017-02-24T08:27:31.718Z,22.97
2017-02-24T08:28:31.668Z,22.97
2017-02-24T08:29:31.593Z,23.07
2017-02-24T08:30:31.640Z,23.07
2017-02-24T08:31:31.470Z,23.16
2017-02-24T08:32:31.413Z,23.07
2017-02-24T08:33:31.348Z,23.16
2017-02-24T08:34:31.297Z,22.77
2017-02-24T08:35:31.379Z,23.07
2017-02-24T08:36:31.163Z,22.77
2017-02-24T08:37:31.116Z,23.07
2017-02-24T08:38:31.046Z,22.97
2017-02-24T08:39:30.975Z,22.97
2017-02-24T08:40:30.910Z,22.97
2017-02-24T08:41:30.858Z,23.07
2017-02-24T08:42:30.784Z,23.16
2017-02-24T08:43:30.729Z,22.87
2017-02-24T08:44:30.670Z,22.87
2017-02-24T08:45:30.627Z,22.87
2017-02-24T08:46:30.534Z,22.87
2017-02-24T08:47:30.474Z,22.67
2017-02-24T08:48:30.424Z,22.77
2017-02-24T08:49:30.356Z,22.77
2017-02-24T08:50:30.288Z,22.67
2017-02-24T08:51:30.225Z,22.87
2017-02-24T08:52:30.166Z,22.39
2017-02-24T08:53:30.335Z,22.39
2017-02-24T08:54:30.037Z,22.58
2017-02-24T08:55:29.980Z,22.67
2017-02-24T08:56:29.605Z,22.39
2017-02-24T08:57:29.849Z,22.49
2017-02-24T08:58:29.786Z,22.58
2017-02-24T08:59:29.774Z,22.58
2017-02-24T09:00:29.665Z,22.58
2017-02-24T09:01:29.601Z,22.67
2017-02-24T09:02:29.538Z,22.49
2017-02-24T09:03:29.489Z,22.58
2017-02-24T09:04:29.411Z,22.58
2017-02-24T09:05:29.352Z,22.49
2017-02-24T09:06:29.288Z,22.49
2017-02-24T09:07:29.236Z,21.62
2017-02-24T09:08:29.166Z,21.91
2017-02-24T09:09:29.146Z,22.1
2017-02-24T09:10:29.039Z,22.19
2017-02-24T09:11:28.975Z,22.1
2017-02-24T09:12:28.968Z,21.91
2017-02-24T09:13:28.861Z,22.19
2017-02-24T09:14:28.795Z,21.62
2017-02-24T09:15:28.341Z,21.62
2017-02-24T09:16:28.669Z,21.62
2017-02-24T09:17:28.607Z,21.71
2017-02-24T09:18:28.553Z,21.71
2017-02-24T09:19:28.491Z,21.62
2017-02-24T09:20:28.416Z,21.52
2017-02-24T09:21:28.354Z,21.62
2017-02-24T09:22:27.924Z,21.62
2017-02-24T09:23:28.246Z,21.62
2017-02-24T09:24:28.169Z,21.52
2017-02-24T09:25:28.109Z,21.62
2017-02-24T09:26:28.041Z,21.81
2017-02-24T09:27:28.027Z,21.71
2017-02-24T09:28:27.922Z,21.71
2017-02-24T09:29:27.899Z,21.71
2017-02-24T09:30:27.791Z,21.81
2017-02-24T09:31:27.729Z,21.62
2017-02-24T09:32:27.666Z,21.62
2017-02-24T09:33:27.608Z,21.71
2017-02-24T09:34:27.545Z,21.62
2017-02-24T09:35:27.506Z,21.62
2017-02-24T09:36:27.424Z,21.71
2017-02-24T09:37:27.356Z,21.52
2017-02-24T09:38:27.294Z,21.33
2017-02-24T09:39:27.240Z,21.33
2017-02-24T09:40:27.184Z,21.33
2017-02-24T09:41:27.104Z,21.23
2017-02-24T09:42:27.043Z,21.42
2017-02-24T09:43:26.995Z,21.42
2017-02-24T09:44:26.930Z,20.84
2017-02-24T09:45:26.856Z,21.13
2017-02-24T09:46:26.418Z,20.94
2017-02-24T09:47:26.747Z,21.04
2017-02-24T09:48:26.685Z,20.94
2017-02-24T09:49:26.609Z,20.94
2017-02-24T09:50:26.853Z,20.94
2017-02-24T09:51:26.482Z,20.84
2017-02-24T09:52:26.427Z,20.65
2017-02-24T09:53:26.368Z,20.46
2017-02-24T09:54:26.337Z,20.65
2017-02-24T09:55:26.334Z,20.26
2017-02-24T09:56:26.285Z,20.46
2017-02-24T09:57:26.108Z,20.65
2017-02-24T09:58:26.084Z,20.84
2017-02-24T09:59:25.987Z,20.94
2017-02-24T10:00:25.938Z,20.56
2017-02-24T10:01:25.910Z,20.65
2017-02-24T10:02:25.419Z,20.26
2017-02-24T10:03:25.348Z,20.56
2017-02-24T10:04:25.675Z,20.75
2017-02-24T10:05:25.225Z,20.65
2017-02-24T10:06:25.162Z,20.84
2017-02-24T10:07:25.100Z,20.56
2017-02-24T10:08:25.428Z,20.56
2017-02-24T10:09:25.361Z,20.46
2017-02-24T10:10:25.309Z,20.56
2017-02-24T10:11:25.235Z,20.26
2017-02-24T10:12:25.173Z,20.17
2017-02-24T10:13:25.115Z,20.26
2017-02-24T10:14:25.060Z,20.36
2017-02-24T10:15:25.000Z,20.36
2017-02-24T10:16:24.937Z,20.36
2017-02-24T10:17:24.861Z,20.46
2017-02-24T10:18:24.436Z,20.36
2017-02-24T10:19:24.740Z,20.46
2017-02-24T10:20:24.683Z,20.26
2017-02-24T10:21:24.626Z,20.46
2017-02-24T10:22:24.552Z,19.98
2017-02-24T10:23:24.509Z,20.17
2017-02-24T10:24:24.433Z,20.17
2017-02-24T10:25:24.730Z,20.07
2017-02-24T10:26:24.313Z,20.07
2017-02-24T10:27:24.252Z,20.36
2017-02-24T10:28:24.181Z,20.26
2017-02-24T10:29:24.132Z,20.07
2017-02-24T10:30:24.315Z,20.56
2017-02-24T10:31:24.001Z,20.26
2017-02-24T10:32:23.928Z,20.26
2017-02-24T10:33:23.872Z,20.26
2017-02-24T10:34:23.806Z,20.26
2017-02-24T10:35:23.748Z,20.17
2017-02-24T10:36:23.694Z,20.17
2017-02-24T10:37:23.617Z,19.88
2017-02-24T10:38:23.559Z,19.78
2017-02-24T10:39:23.490Z,20.26
2017-02-24T10:40:23.434Z,20.17
2017-02-24T10:41:23.376Z,20.17
2017-02-24T10:42:23.377Z,19.68
2017-02-24T10:43:23.295Z,19.68
2017-02-24T10:44:23.217Z,19.68
2017-02-24T10:45:23.128Z,19.68
2017-02-24T10:46:23.077Z,19.79
2017-02-24T10:47:23.001Z,20.17
2017-02-24T10:48:22.942Z,19.88
2017-02-24T10:49:22.871Z,20.07
2017-02-24T10:50:22.726Z,20.17
2017-02-24T10:51:22.744Z,20.36
2017-02-24T10:52:22.682Z,20.46
2017-02-24T10:53:22.623Z,20.84
2017-02-24T10:54:22.570Z,21.42
2017-02-24T10:55:22.499Z,21.42
2017-02-24T10:56:22.440Z,21.33
2017-02-24T10:57:22.375Z,21.13
2017-02-24T10:58:22.311Z,21.04
2017-02-24T10:59:22.246Z,21.81
2017-02-24T11:00:22.188Z,21.71
2017-02-24T11:01:22.123Z,21.42
2017-02-24T11:02:21.676Z,21.81
2017-02-24T11:03:22.001Z,21.52
2017-02-24T11:04:21.783Z,21.91
2017-02-24T11:05:21.870Z,21.91
2017-02-24T11:06:21.811Z,22.2
2017-02-24T11:07:21.397Z,22.29
2017-02-24T11:08:21.687Z,22.58
2017-02-24T11:09:21.625Z,22.69
2017-02-24T11:10:21.569Z,22.98
2017-02-24T11:11:21.502Z,22.98
2017-02-24T11:12:21.439Z,23.08
2017-02-24T11:13:21.479Z,23.65
2017-02-24T11:14:21.325Z,23.25
2017-02-24T11:15:21.268Z,23.17
2017-02-24T11:16:20.842Z,23.27
2017-02-24T11:17:21.129Z,23.27
2017-02-24T11:18:21.065Z,23.65
2017-02-24T11:19:20.617Z,23.56
2017-02-24T11:20:20.941Z,23.85
2017-02-24T11:21:20.877Z,23.65
2017-02-24T11:22:20.824Z,23.36
2017-02-24T11:23:20.370Z,23.85
2017-02-24T11:24:20.700Z,23.94
2017-02-24T11:25:20.641Z,23.65
2017-02-24T11:26:20.577Z,23.85
2017-02-24T11:27:20.509Z,23.85
2017-02-24T11:28:20.056Z,23.75
2017-02-24T11:29:20.383Z,23.36
2017-02-24T11:30:20.327Z,23.56
2017-02-24T11:31:19.874Z,23.75
2017-02-24T11:32:19.813Z,23.36
2017-02-24T11:33:20.131Z,23.56
2017-02-24T11:34:20.079Z,24.14
2017-02-24T11:35:19.640Z,23.94
2017-02-24T11:36:19.953Z,23.75
2017-02-24T11:37:19.888Z,23.85
2017-02-24T11:38:19.832Z,23.75
2017-02-24T11:39:19.762Z,23.85
2017-02-24T11:40:19.707Z,23.65
2017-02-24T11:41:19.636Z,24.14
2017-02-24T11:42:19.583Z,23.85
2017-02-24T11:43:19.510Z,24.14
2017-02-24T11:44:19.062Z,24.23
2017-02-24T11:45:19.397Z,24.33
2017-02-24T11:46:19.337Z,24.14
2017-02-24T11:47:19.264Z,23.75
2017-02-24T11:48:19.211Z,23.56
2017-02-24T11:49:19.143Z,23.36
2017-02-24T11:50:19.080Z,24.14
2017-02-24T11:51:19.020Z,23.94
2017-02-24T11:52:18.961Z,23.75
2017-02-24T11:53:18.896Z,23.85
2017-02-24T11:54:18.839Z,23.75
2017-02-24T11:55:18.789Z,23.94
2017-02-24T11:56:18.923Z,23.85
2017-02-24T11:57:18.665Z,23.75
2017-02-24T11:58:18.627Z,24.14
2017-02-24T11:59:18.520Z,23.75
2017-02-24T12:00:18.481Z,23.94
2017-02-24T12:01:18.398Z,24.23
2017-02-24T12:02:17.971Z,24.04
2017-02-24T12:03:18.274Z,23.85
2017-02-24T12:04:18.283Z,23.85
2017-02-24T12:05:18.447Z,23.94
2017-02-24T12:06:18.095Z,23.75
2017-02-24T12:07:18.033Z,23.86
2017-02-24T12:08:17.614Z,23.85
2017-02-24T12:09:17.905Z,23.47
2017-02-24T12:10:17.883Z,23.46
2017-02-24T12:11:17.802Z,23.94
2017-02-24T12:12:17.726Z,23.56
2017-02-24T12:13:17.657Z,23.57
2017-02-24T12:14:17.597Z,23.56
2017-02-24T12:15:17.539Z,23.66
2017-02-24T12:16:17.469Z,23.57
2017-02-24T12:17:17.412Z,23.65
2017-02-24T12:18:17.343Z,23.66
2017-02-24T12:19:17.286Z,23.57
2017-02-24T12:20:17.225Z,23.18
2017-02-24T12:21:17.168Z,23.57
2017-02-24T12:22:17.118Z,23.76
2017-02-24T12:23:17.057Z,22.8
2017-02-24T12:24:16.978Z,22.89
2017-02-24T12:25:17.115Z,23.08
2017-02-24T12:26:16.877Z,22.89
2017-02-24T12:27:16.789Z,22.5
2017-02-24T12:28:16.338Z,22.5
2017-02-24T12:29:16.662Z,22.5
2017-02-24T12:30:16.214Z,22.89
2017-02-24T12:31:16.544Z,22.99
2017-02-24T12:32:16.475Z,22.8
2017-02-24T12:33:16.418Z,23.08
2017-02-24T12:34:16.382Z,22.89
2017-02-24T12:35:15.939Z,22.89
2017-02-24T12:36:16.278Z,22.6
2017-02-24T12:37:16.173Z,23.08
2017-02-24T12:38:16.107Z,23.08
2017-02-24T12:39:16.048Z,23.96
2017-02-24T12:40:15.999Z,23.08
2017-02-24T12:41:15.536Z,23.28
2017-02-24T12:42:15.863Z,22.89
2017-02-24T12:43:15.427Z,23.57
2017-02-24T12:44:15.350Z,23.08
2017-02-24T12:45:15.693Z,23.66
2017-02-24T12:46:15.628Z,22.89
2017-02-24T12:47:15.565Z,22.7
2017-02-24T12:48:15.489Z,22.89
2017-02-24T12:49:15.438Z,22.89
2017-02-24T12:50:15.370Z,22.6
2017-02-24T12:51:15.338Z,23.57
2017-02-24T12:52:15.294Z,22.89
2017-02-24T12:53:14.818Z,22.5
2017-02-24T12:54:15.159Z,22.7
2017-02-24T12:55:15.060Z,23.08
2017-02-24T12:56:15.007Z,22.89
2017-02-24T12:57:14.939Z,23.1
2017-02-24T12:58:14.900Z,23.29